Time;durP1;ratioP1;P1;durP2;ratioP2;P2;SDS_P1;SDS_P2;PMS_P1;PMS_P2;Temp;Humidity;BMP_temperature;BMP_pressure;BME280_temperature;BME280_humidity;BME280_pressure;Samples;Min_cycle;Max_cycle;Signal;HPM_P1;HPM_P2
2023/12/08 00:02:05;;;;;;;11.57;7.73;;;;;;;1.75;100.00;63097.72;5054130;28;20703;-54
2023/12/08 00:04:31;;;;;;;11.77;8.20;;;;;;;1.82;100.00;63107.78;5053590;28;20213;-52
2023/12/08 00:06:57;;;;;;;10.70;6.87;;;;;;;1.70;100.00;63095.31;5035904;28;20233;-54
2023/12/08 00:09:22;;;;;;;10.37;6.90;;;;;;;1.66;100.00;63087.94;5035973;28;20236;-52
2023/12/08 00:11:48;;;;;;;15.57;7.50;;;;;;;1.64;100.00;63086.31;5053808;28;20209;-53
2023/12/08 00:14:14;;;;;;;14.00;8.00;;;;;;;1.59;100.00;63080.91;5053697;28;20725;-52
2023/12/08 00:16:41;;;;;;;11.90;7.50;;;;;;;1.72;100.00;63093.91;5053693;28;20209;-52
2023/12/08 00:19:06;;;;;;;10.60;7.00;;;;;;;1.68;100.00;63090.09;5035834;28;20686;-55
2023/12/08 00:21:33;;;;;;;12.67;7.63;;;;;;;1.61;100.00;63085.00;5053679;28;20201;-58
2023/12/08 00:23:58;;;;;;;11.07;8.00;;;;;;;1.61;100.00;63083.06;5035326;28;20331;-54
2023/12/08 00:26:24;;;;;;;11.97;7.30;;;;;;;1.47;100.00;63067.91;5052825;28;20685;-55
2023/12/08 00:28:50;;;;;;;13.07;8.17;;;;;;;1.59;100.00;63080.91;5053855;28;20243;-53
2023/12/08 00:31:15;;;;;;;11.40;7.33;;;;;;;1.60;100.00;63081.44;5053673;28;20234;-52
2023/12/08 00:33:41;;;;;;;11.33;7.43;;;;;;;1.62;100.00;63086.09;5053921;28;20200;-55
2023/12/08 00:36:14;;;;;;;10.03;7.17;;;;;;;1.55;100.00;63079.06;5053709;28;20208;-51
2023/12/08 00:38:40;;;;;;;12.67;8.33;;;;;;;1.65;100.00;63089.91;5053528;28;20218;-53
2023/12/08 00:41:08;;;;;;;13.23;7.77;;;;;;;1.75;100.00;63100.19;5053270;28;20201;-57
2023/12/08 00:43:34;;;;;;;11.50;7.27;;;;;;;1.78;100.00;63102.91;5053183;28;20292;-53
2023/12/08 00:45:59;;;;;;;11.30;7.63;;;;;;;1.83;100.00;63108.88;5053318;28;20304;-53
2023/12/08 00:48:25;;;;;;;12.47;8.03;;;;;;;1.74;100.00;63096.63;5053134;28;20650;-51
2023/12/08 00:50:50;;;;;;;12.97;7.93;;;;;;;1.78;100.00;63100.44;5053193;28;20210;-54
2023/12/08 00:53:16;;;;;;;9.93;7.50;;;;;;;1.64;100.00;63088.25;5052967;28;20201;-54
2023/12/08 00:55:41;;;;;;;10.67;6.73;;;;;;;1.69;100.00;63094.22;5053175;28;20201;-54
2023/12/08 00:58:07;;;;;;;12.63;7.60;;;;;;;1.64;100.00;63088.81;5053027;28;20213;-55
2023/12/08 01:00:33;;;;;;;9.97;7.07;;;;;;;1.74;100.00;63098.56;5052837;28;20200;-52
2023/12/08 01:02:59;;;;;;;9.57;6.63;;;;;;;1.68;100.00;63090.66;5052755;28;20756;-54
2023/12/08 01:05:24;;;;;;;11.83;6.53;;;;;;;1.62;100.00;63086.63;5052771;28;20255;-54
2023/12/08 01:07:50;;;;;;;12.20;7.07;;;;;;;1.66;100.00;63090.41;5053227;28;20217;-54
2023/12/08 01:10:16;;;;;;;9.50;6.30;;;;;;;1.70;100.00;63094.75;5052416;28;20250;-52
2023/12/08 01:12:43;;;;;;;9.47;6.30;;;;;;;1.76;100.00;63100.75;5053289;28;20213;-55
2023/12/08 01:15:09;;;;;;;12.17;6.53;;;;;;;1.73;100.00;63098.03;5052995;28;20201;-53
2023/12/08 01:17:34;;;;;;;9.97;7.37;;;;;;;1.70;100.00;63094.75;5052812;28;20210;-52
2023/12/08 01:20:00;;;;;;;12.13;7.10;;;;;;;1.70;100.00;63095.31;5052690;28;20216;-53
2023/12/08 01:22:27;;;;;;;9.20;6.50;;;;;;;1.81;100.00;63106.16;5052676;28;20206;-51
2023/12/08 01:24:54;;;;;;;10.67;6.13;;;;;;;1.80;100.00;63105.59;5052865;28;20244;-52
2023/12/08 01:27:19;;;;;;;12.60;6.33;;;;;;;1.61;100.00;63082.53;5034768;28;20220;-53
2023/12/08 01:29:45;;;;;;;10.17;6.17;;;;;;;1.66;100.00;63090.97;5034672;28;20197;-52
2023/12/08 01:32:10;;;;;;;8.20;5.77;;;;;;;1.69;100.00;63091.19;5052806;28;20209;-53
2023/12/08 01:34:36;;;;;;;10.33;6.33;;;;;;;1.79;100.00;63103.97;5052367;28;20201;-52
2023/12/08 01:37:02;;;;;;;9.40;5.80;;;;;;;1.74;100.00;63099.09;5034507;28;20576;-50
2023/12/08 01:39:27;;;;;;;9.30;5.73;;;;;;;1.71;100.00;63098.34;5052322;28;20528;-55
2023/12/08 01:41:53;;;;;;;7.67;5.33;;;;;;;1.65;100.00;63086.88;5052346;28;20232;-52
2023/12/08 01:44:18;;;;;;;7.77;5.13;;;;;;;1.70;100.00;63095.31;5052349;28;20569;-51
2023/12/08 01:46:45;;;;;;;9.17;6.57;;;;;;;1.77;100.00;63104.84;5052305;28;20275;-52
2023/12/08 01:49:12;;;;;;;12.03;6.73;;;;;;;1.73;100.00;63095.53;5052206;28;20220;-52
2023/12/08 01:51:38;;;;;;;10.00;6.43;;;;;;;1.70;100.00;63095.31;5052332;28;20210;-52
2023/12/08 01:54:05;;;;;;;12.83;8.07;;;;;;;1.78;100.00;63102.91;5052140;28;20201;-54
2023/12/08 01:56:30;;;;;;;11.13;7.70;;;;;;;1.79;100.00;63103.97;5051859;28;20190;-52
2023/12/08 01:58:56;;;;;;;13.90;8.40;;;;;;;1.83;100.00;63108.31;5034174;28;20205;-52
2023/12/08 02:01:22;;;;;;;12.97;8.37;;;;;;;1.77;100.00;63099.88;5052486;28;20212;-52
2023/12/08 02:03:50;;;;;;;14.63;7.83;;;;;;;1.59;100.00;63082.84;5051842;28;20758;-51
2023/12/08 02:06:15;;;;;;;10.67;7.27;;;;;;;1.51;100.00;63074.16;5050652;28;20247;-50
2023/12/08 02:08:41;;;;;;;12.63;7.83;;;;;;;1.47;100.00;63067.34;5052118;28;20632;-53
2023/12/08 02:11:06;;;;;;;10.37;7.53;;;;;;;1.51;100.00;63071.69;5051954;28;20228;-53
2023/12/08 02:13:33;;;;;;;13.50;7.77;;;;;;;1.52;100.00;63075.78;5051876;28;20296;-51
2023/12/08 02:16:08;;;;;;;14.07;6.93;;;;;;;1.53;100.00;63076.34;5051566;28;20205;-51
2023/12/08 02:18:34;;;;;;;11.57;6.93;;;;;;;1.59;100.00;63077.88;5052157;28;20205;-55
2023/12/08 02:21:02;;;;;;;14.27;7.90;;;;;;;1.48;100.00;63068.97;5033571;28;20221;-57
2023/12/08 02:23:28;;;;;;;12.03;7.93;;;;;;;1.50;100.00;63073.63;5049885;28;20288;-53
2023/12/08 02:25:54;;;;;;;10.77;6.53;;;;;;;1.42;100.00;63064.41;5052041;28;20770;-53
2023/12/08 02:28:19;;;;;;;12.93;7.10;;;;;;;1.48;100.00;63068.97;5052184;28;20205;-55
2023/12/08 02:30:45;;;;;;;10.97;6.30;;;;;;;1.46;100.00;63066.81;5052025;28;20189;-54
2023/12/08 02:33:12;;;;;;;10.07;5.90;;;;;;;1.41;100.00;63058.38;5051804;28;20205;-54
2023/12/08 02:35:40;;;;;;;10.07;6.70;;;;;;;1.57;100.00;63078.75;5051502;28;20288;-54
2023/12/08 02:38:08;;;;;;;11.37;7.00;;;;;;;1.56;100.00;63077.09;5051343;28;20215;-52
2023/12/08 02:40:37;;;;;;;15.33;7.50;;;;;;;1.55;100.00;63076.56;5051541;28;20204;-53
2023/12/08 02:43:03;;;;;;;10.27;6.90;;;;;;;1.50;100.00;63071.13;5051403;28;20232;-54
2023/12/08 02:45:29;;;;;;;10.30;6.73;;;;;;;1.53;100.00;63076.88;5033631;28;20311;-52
2023/12/08 02:47:54;;;;;;;10.07;6.63;;;;;;;1.61;100.00;63085.56;5051689;28;20351;-52
2023/12/08 02:50:20;;;;;;;11.90;6.47;;;;;;;1.68;100.00;63090.09;5051154;28;20220;-51
2023/12/08 02:52:45;;;;;;;8.93;5.93;;;;;;;1.46;100.00;63069.28;5051161;28;20209;-50
2023/12/08 02:55:11;;;;;;;9.53;6.03;;;;;;;1.39;100.00;63064.19;5033752;28;20201;-54
2023/12/08 02:57:36;;;;;;;11.63;6.60;;;;;;;1.44;100.00;63066.56;5051018;28;20220;-51
2023/12/08 03:00:04;;;;;;;10.20;6.30;;;;;;;1.36;100.00;63055.97;5051499;28;20197;-51
2023/12/08 03:02:29;;;;;;;12.47;6.97;;;;;;;1.31;100.00;63052.50;5051249;28;20705;-51
2023/12/08 03:04:55;;;;;;;8.07;5.87;;;;;;;1.35;100.00;63057.38;5051155;28;20217;-52
2023/12/08 03:07:20;;;;;;;10.70;6.50;;;;;;;1.47;100.00;63069.84;5033183;28;20209;-50
2023/12/08 03:09:46;;;;;;;12.63;6.77;;;;;;;1.41;100.00;63061.41;5051220;28;20201;-51
2023/12/08 03:12:11;;;;;;;9.77;6.30;;;;;;;1.52;100.00;63075.25;5050917;28;20208;-50
2023/12/08 03:14:37;;;;;;;10.77;6.83;;;;;;;1.43;100.00;63063.56;5050940;28;20209;-53
2023/12/08 03:17:03;;;;;;;10.03;6.60;;;;;;;1.48;100.00;63071.44;5032849;28;20721;-51
2023/12/08 03:19:28;;;;;;;9.83;6.50;;;;;;;1.37;100.00;63054.56;5051158;28;20228;-52
2023/12/08 03:21:54;;;;;;;9.40;5.80;;;;;;;1.39;100.00;63059.22;5051136;28;20235;-52
2023/12/08 03:24:19;;;;;;;10.60;6.30;;;;;;;1.40;100.00;63059.75;5050734;28;20635;-53
2023/12/08 03:26:52;;;;;;;10.47;6.37;;;;;;;1.46;100.00;63069.28;5032775;28;20205;-51
2023/12/08 03:29:17;;;;;;;9.70;6.10;;;;;;;1.39;100.00;63061.16;5050735;28;20724;-51
2023/12/08 03:31:43;;;;;;;9.43;5.93;;;;;;;1.46;100.00;63069.28;5050975;28;20202;-51
2023/12/08 03:34:09;;;;;;;8.20;5.80;;;;;;;1.43;100.00;63063.56;5050585;28;20206;-51
2023/12/08 03:36:35;;;;;;;9.17;6.03;;;;;;;1.45;100.00;63067.66;5050964;28;20651;-54
2023/12/08 03:39:00;;;;;;;9.40;5.60;;;;;;;1.38;100.00;63060.63;5050884;28;20223;-53
2023/12/08 03:41:26;;;;;;;8.10;6.07;;;;;;;1.36;100.00;63058.44;5032628;28;20210;-54
2023/12/08 03:43:51;;;;;;;8.00;6.00;;;;;;;1.31;100.00;63053.03;5050284;28;20286;-55
2023/12/08 03:46:17;;;;;;;9.30;5.07;;;;;;;1.35;100.00;63057.38;5050154;28;20327;-53
2023/12/08 03:48:43;;;;;;;8.07;5.33;;;;;;;1.31;100.00;63052.50;5050547;28;20259;-52
2023/12/08 03:51:08;;;;;;;9.00;5.53;;;;;;;1.21;100.00;63041.66;5050612;28;20202;-53
2023/12/08 03:53:34;;;;;;;9.40;5.97;;;;;;;1.26;100.00;63047.59;5050901;28;20212;-53
2023/12/08 03:55:59;;;;;;;9.87;6.13;;;;;;;1.39;100.00;63061.16;5050647;28;20209;-52
2023/12/08 03:58:26;;;;;;;7.93;5.63;;;;;;;1.29;100.00;63053.34;5050789;28;20212;-52
2023/12/08 04:00:52;;;;;;;10.17;6.90;;;;;;;1.31;100.00;63052.50;5050183;28;20228;-52
2023/12/08 04:03:17;;;;;;;7.27;5.77;;;;;;;1.35;100.00;63059.31;5050293;28;20689;-54
2023/12/08 04:05:43;;;;;;;7.07;5.17;;;;;;;1.30;100.00;63051.41;5050299;28;20300;-53
2023/12/08 04:08:09;;;;;;;9.70;6.37;;;;;;;1.39;100.00;63061.16;5050050;28;20699;-52
2023/12/08 04:10:34;;;;;;;12.20;7.93;;;;;;;1.39;100.00;63056.75;5050110;28;20236;-51
2023/12/08 04:13:00;;;;;;;9.30;6.10;;;;;;;1.38;100.00;63060.63;5050442;28;20654;-51
2023/12/08 04:15:25;;;;;;;7.40;5.40;;;;;;;1.19;100.00;63039.47;5032404;28;20229;-52
2023/12/08 04:17:51;;;;;;;13.37;7.77;;;;;;;1.24;100.00;63044.88;5032221;28;20217;-53
2023/12/08 04:20:17;;;;;;;9.70;5.70;;;;;;;1.21;100.00;63039.69;5050136;28;20201;-55
2023/12/08 04:22:43;;;;;;;9.57;6.10;;;;;;;1.36;100.00;63055.41;5050033;28;20680;-53
2023/12/08 04:25:09;;;;;;;9.33;6.13;;;;;;;1.30;100.00;63051.94;5049943;28;20520;-54
2023/12/08 04:27:34;;;;;;;9.80;6.10;;;;;;;1.43;100.00;63060.53;5050257;28;20320;-54
2023/12/08 04:30:00;;;;;;;10.87;6.50;;;;;;;1.39;100.00;63058.69;5050075;28;20201;-51
2023/12/08 04:32:25;;;;;;;9.27;5.73;;;;;;;1.39;100.00;63061.72;5050080;28;20225;-53
2023/12/08 04:34:51;;;;;;;6.17;5.07;;;;;;;1.34;100.00;63055.72;5049987;28;20265;-52
2023/12/08 04:37:16;;;;;;;7.70;5.03;;;;;;;1.33;100.00;63052.72;5059905;22;20214;-52
2023/12/08 04:39:42;;;;;;;7.43;5.33;;;;;;;1.20;100.00;63041.09;5069905;28;20213;-53
2023/12/08 04:42:07;;;;;;;10.53;6.10;;;;;;;1.29;100.00;63053.34;5062868;28;20224;-54
2023/12/08 04:44:33;;;;;;;9.43;6.23;;;;;;;1.36;100.00;63058.44;5049899;28;20290;-52
2023/12/08 04:46:59;;;;;;;8.67;5.50;;;;;;;1.34;100.00;63055.72;5035172;28;20240;-51
2023/12/08 04:49:25;;;;;;;9.17;6.63;;;;;;;1.31;100.00;63053.03;5053134;28;20246;-51
2023/12/08 04:51:51;;;;;;;9.87;5.80;;;;;;;1.22;100.00;63043.28;5053326;28;20683;-54
2023/12/08 04:54:16;;;;;;;9.37;5.43;;;;;;;1.37;100.00;63059.53;5053090;28;20617;-55
2023/12/08 04:56:42;;;;;;;8.43;5.67;;;;;;;1.35;100.00;63056.81;5018428;28;20292;-54
2023/12/08 04:59:09;;;;;;;9.77;5.63;;;;;;;1.24;100.00;63040.47;5052836;28;20201;-53
2023/12/08 05:01:35;;;;;;;9.07;5.50;;;;;;;1.23;100.00;63038.84;5052881;28;20655;-57
2023/12/08 05:04:02;;;;;;;9.07;5.67;;;;;;;1.29;100.00;63050.88;5052890;28;20232;-54
2023/12/08 05:06:29;;;;;;;10.47;5.03;;;;;;;1.20;100.00;63041.09;5052765;28;20680;-55
2023/12/08 05:08:55;;;;;;;9.93;6.00;;;;;;;1.21;100.00;63042.19;5052593;28;20201;-57
2023/12/08 05:11:21;;;;;;;8.47;5.57;;;;;;;1.20;100.00;63041.09;5052801;28;20181;-52
2023/12/08 05:13:48;;;;;;;8.00;5.60;;;;;;;1.28;100.00;63047.28;5052963;28;20201;-53
2023/12/08 05:16:14;;;;;;;7.83;5.80;;;;;;;1.28;100.00;63052.25;5052626;28;20298;-53
2023/12/08 05:18:40;;;;;;;9.70;5.93;;;;;;;1.34;100.00;63056.28;5034746;28;20271;-55
2023/12/08 05:21:06;;;;;;;9.00;5.73;;;;;;;1.36;100.00;63055.41;5052665;28;20288;-55
2023/12/08 05:23:32;;;;;;;8.27;5.60;;;;;;;1.45;100.00;63067.66;5053012;28;20220;-53
2023/12/08 05:25:57;;;;;;;8.10;5.37;;;;;;;1.45;100.00;63065.19;5052740;28;20221;-52
2023/12/08 05:28:23;;;;;;;9.60;6.67;;;;;;;1.55;100.00;63076.03;5052995;28;20288;-55
2023/12/08 05:30:48;;;;;;;9.40;5.90;;;;;;;1.56;100.00;63080.13;5052599;28;20205;-57
2023/12/08 05:33:16;;;;;;;8.27;5.60;;;;;;;1.42;100.00;63064.41;5034818;28;20236;-53
2023/12/08 05:35:42;;;;;;;9.17;6.10;;;;;;;1.53;100.00;63073.84;5034602;28;20232;-52
2023/12/08 05:38:08;;;;;;;10.63;6.13;;;;;;;1.27;100.00;63048.69;5052818;28;20217;-57
2023/12/08 05:40:34;;;;;;;10.17;5.67;;;;;;;1.43;100.00;63063.00;5052258;28;20572;-53
2023/12/08 05:42:59;;;;;;;7.73;5.77;;;;;;;1.41;100.00;63063.88;5034532;28;20214;-54
2023/12/08 05:45:25;;;;;;;9.40;5.70;;;;;;;1.35;100.00;63054.88;5052230;28;20217;-53
2023/12/08 05:47:50;;;;;;;8.70;5.77;;;;;;;1.43;100.00;63068.53;5052302;28;20248;-61
2023/12/08 05:50:17;;;;;;;6.73;4.97;;;;;;;1.42;100.00;63061.91;5034263;28;20593;-54
2023/12/08 05:52:42;;;;;;;7.37;5.27;;;;;;;1.40;100.00;63057.28;5051857;28;20209;-54
2023/12/08 05:55:08;;;;;;;9.70;5.40;;;;;;;1.35;100.00;63054.88;5052084;28;20208;-54
2023/12/08 05:57:33;;;;;;;7.87;4.97;;;;;;;1.36;100.00;63058.44;5050916;28;20202;-52
2023/12/08 05:59:59;;;;;;;8.30;4.70;;;;;;;1.29;100.00;63050.31;5051560;28;20246;-53
2023/12/08 06:02:24;;;;;;;6.37;4.47;;;;;;;1.46;100.00;63068.75;5052307;28;20339;-53
2023/12/08 06:04:50;;;;;;;11.17;5.80;;;;;;;1.34;100.00;63056.28;5052505;28;20595;-53
2023/12/08 06:07:15;;;;;;;10.97;5.70;;;;;;;1.30;100.00;63051.94;5052048;28;20210;-53
2023/12/08 06:09:41;;;;;;;10.53;5.93;;;;;;;1.39;100.00;63061.72;5051728;28;20205;-53
2023/12/08 06:12:07;;;;;;;9.53;6.13;;;;;;;1.51;100.00;63077.19;5051903;28;20216;-54
2023/12/08 06:14:32;;;;;;;6.33;4.70;;;;;;;1.48;100.00;63068.97;5033999;28;20202;-53
2023/12/08 06:16:58;;;;;;;6.77;4.47;;;;;;;1.41;100.00;63063.88;5051485;28;20225;-52
2023/12/08 06:19:23;;;;;;;7.17;4.87;;;;;;;1.46;100.00;63069.28;5033898;28;20205;-52
2023/12/08 06:21:49;;;;;;;7.87;5.70;;;;;;;1.41;100.00;63063.88;5051811;28;20205;-55
2023/12/08 06:24:17;;;;;;;8.53;5.40;;;;;;;1.52;100.00;63075.25;5051735;28;20213;-52
2023/12/08 06:26:43;;;;;;;8.60;5.73;;;;;;;1.50;100.00;63073.63;5033557;28;20220;-52
2023/12/08 06:29:08;;;;;;;9.73;5.40;;;;;;;1.56;100.00;63077.09;5051517;28;20250;-53
2023/12/08 06:31:34;;;;;;;9.13;5.40;;;;;;;2.54;100.00;63183.41;5051777;28;20254;-53
2023/12/08 06:33:59;;;;;;;7.03;4.87;;;;;;;2.21;100.00;63147.59;5051511;28;20381;-52
2023/12/08 06:36:26;;;;;;;8.80;5.30;;;;;;;1.95;100.00;63121.34;5033638;28;20201;-54
2023/12/08 06:38:52;;;;;;;10.10;4.93;;;;;;;1.91;100.00;63117.00;5049363;28;20198;-52
2023/12/08 06:41:17;;;;;;;9.77;5.87;;;;;;;1.93;100.00;63117.22;5050478;28;20682;-52
2023/12/08 06:43:43;;;;;;;8.57;5.20;;;;;;;1.83;100.00;63105.84;5033722;28;20259;-52
2023/12/08 06:46:08;;;;;;;7.33;5.13;;;;;;;1.75;100.00;63097.16;5051438;28;20270;-53
2023/12/08 06:48:34;;;;;;;8.43;5.80;;;;;;;1.77;100.00;63101.81;5051783;28;20754;-53
2023/12/08 06:50:59;;;;;;;10.00;5.03;;;;;;;1.75;100.00;63099.66;5051721;28;20210;-54
2023/12/08 06:53:25;;;;;;;7.17;5.77;;;;;;;1.72;100.00;63096.41;5016916;28;20201;-54
2023/12/08 06:55:51;;;;;;;9.03;5.73;;;;;;;1.73;100.00;63098.03;5051110;28;20205;-53
2023/12/08 06:58:17;;;;;;;8.23;5.23;;;;;;;1.73;100.00;63098.03;5050794;28;20296;-53
2023/12/08 07:00:43;;;;;;;8.00;5.10;;;;;;;1.86;100.00;63109.09;5051176;28;20651;-56
2023/12/08 07:03:08;;;;;;;8.17;5.70;;;;;;;1.98;100.00;63122.13;5051216;28;20209;-53
2023/12/08 07:05:34;;;;;;;10.37;5.77;;;;;;;1.92;100.00;63118.09;5050965;28;20218;-55
2023/12/08 07:08:01;;;;;;;8.33;5.43;;;;;;;1.83;100.00;63108.88;5050195;28;20221;-53
2023/12/08 07:10:26;;;;;;;10.97;6.37;;;;;;;1.82;100.00;63107.78;5051555;28;20206;-53
2023/12/08 07:12:52;;;;;;;10.70;5.17;;;;;;;1.78;100.00;63100.44;5051143;28;20205;-52
2023/12/08 07:15:17;;;;;;;8.30;5.77;;;;;;;1.65;100.00;63089.34;5032980;28;20211;-51
2023/12/08 07:17:43;;;;;;;9.13;5.67;;;;;;;1.62;100.00;63084.16;5051369;28;20216;-52
2023/12/08 07:20:11;;;;;;;10.53;6.27;;;;;;;1.66;100.00;63088.50;5051016;28;20241;-52
2023/12/08 07:22:37;;;;;;;8.63;6.20;;;;;;;1.69;100.00;63093.69;5051010;28;20232;-53
2023/12/08 07:25:04;;;;;;;8.33;5.83;;;;;;;1.71;100.00;63093.38;5032877;28;20695;-53
2023/12/08 07:27:31;;;;;;;8.53;6.23;;;;;;;1.70;100.00;63094.75;5051062;28;20678;-51
2023/12/08 07:29:57;;;;;;;10.30;6.27;;;;;;;1.81;100.00;63104.22;5033018;28;20248;-51
2023/12/08 07:32:24;;;;;;;11.43;5.67;;;;;;;1.85;100.00;63108.56;5050916;28;20240;-52
2023/12/08 07:34:50;;;;;;;9.13;6.20;;;;;;;1.72;100.00;63093.91;5050506;28;20205;-55
2023/12/08 07:37:16;;;;;;;9.57;6.30;;;;;;;1.83;100.00;63108.88;5050988;28;20270;-54
2023/12/08 07:39:42;;;;;;;12.90;7.87;;;;;;;1.90;100.00;63115.94;5050795;28;20221;-53
2023/12/08 07:42:08;;;;;;;10.50;6.37;;;;;;;1.97;100.00;63121.56;5050650;28;20201;-53
2023/12/08 07:44:34;;;;;;;8.87;6.10;;;;;;;1.87;100.00;63113.22;5050619;28;20243;-54
2023/12/08 07:47:00;;;;;;;13.53;7.17;;;;;;;1.88;100.00;63111.28;5049295;28;20220;-59
2023/12/08 07:49:26;;;;;;;9.07;6.43;;;;;;;1.88;100.00;63111.81;5050639;28;20565;-52
2023/12/08 07:51:51;;;;;;;12.87;6.70;;;;;;;1.80;100.00;63105.06;5050508;28;20209;-52
2023/12/08 07:54:17;;;;;;;15.63;8.30;;;;;;;1.67;100.00;63092.06;5050263;28;20238;-55
2023/12/08 07:56:43;;;;;;;9.33;5.97;;;;;;;1.83;100.00;63108.88;5050327;28;20213;-52
2023/12/08 07:59:08;;;;;;;11.60;6.17;;;;;;;2.03;100.00;63130.00;5050413;28;20216;-53
2023/12/08 08:01:35;;;;;;;7.83;5.77;;;;;;;1.99;100.00;63128.72;5032341;28;20296;-55
2023/12/08 08:04:01;;;;;;;7.97;6.20;;;;;;;2.08;100.00;63135.44;5050741;28;20263;-54
2023/12/08 08:06:26;;;;;;;10.67;6.77;;;;;;;1.99;100.00;63123.19;5050167;28;20221;-55
2023/12/08 08:08:52;;;;;;;9.83;6.03;;;;;;;1.93;100.00;63116.69;5050101;28;20213;-53
2023/12/08 08:11:17;;;;;;;10.90;6.53;;;;;;;1.99;100.00;63126.22;5050186;28;20179;-53
2023/12/08 08:13:43;;;;;;;11.40;6.73;;;;;;;1.94;100.00;63117.78;5050478;28;20271;-53
2023/12/08 08:16:09;;;;;;;8.13;5.97;;;;;;;1.89;100.00;63117.31;5050477;28;20224;-52
2023/12/08 08:18:41;;;;;;;8.40;6.00;;;;;;;1.90;100.00;63115.94;5050286;28;20325;-52
2023/12/08 08:21:06;;;;;;;12.60;6.43;;;;;;;1.97;100.00;63121.03;5050592;28;20292;-52
2023/12/08 08:23:33;;;;;;;9.97;6.53;;;;;;;2.01;100.00;63125.38;5034406;28;20829;-52
2023/12/08 08:25:58;;;;;;;10.63;6.93;;;;;;;1.97;100.00;63123.50;5053412;28;20218;-53
2023/12/08 08:28:26;;;;;;;8.67;6.23;;;;;;;2.01;100.00;63127.84;5035382;28;20232;-55
2023/12/08 08:30:51;;;;;;;11.57;7.20;;;;;;;2.16;100.00;63139.16;5053823;28;20294;-54
2023/12/08 08:33:17;;;;;;;8.93;6.60;;;;;;;2.20;100.00;63148.47;5053632;28;20354;-55
2023/12/08 08:35:42;;;;;;;10.17;6.83;;;;;;;2.13;100.00;63138.94;5051711;28;20296;-53
2023/12/08 08:38:08;;;;;;;9.70;5.63;;;;;;;2.16;100.00;63141.66;5051236;28;20208;-55
2023/12/08 08:40:33;;;;;;;12.67;7.23;;;;;;;2.37;100.00;63164.41;5051215;28;20214;-52
2023/12/08 08:42:59;;;;;;;8.13;6.30;;;;;;;2.36;100.00;63163.34;5033251;28;20321;-55
2023/12/08 08:45:25;;;;;;;9.17;6.30;;;;;;;2.27;100.00;63156.06;5051120;28;20228;-53
2023/12/08 08:47:50;;;;;;;11.13;6.17;;;;;;;2.13;100.00;63140.88;5051808;28;20213;-56
2023/12/08 08:50:16;;;;;;;8.97;5.67;;;;;;;2.14;100.00;63144.97;5052442;28;20213;-63
2023/12/08 08:52:41;;;;;;;12.10;7.17;;;;;;;2.27;100.00;63156.06;5053061;28;20271;-52
2023/12/08 08:55:07;;;;;;;11.90;7.20;;;;;;;2.49;100.00;63177.44;5035159;28;20285;-53
2023/12/08 08:57:33;;;;;;;10.90;6.63;;;;;;;2.64;100.00;63196.22;5053245;28;20213;-53
2023/12/08 08:59:58;;;;;;;10.47;6.17;;;;;;;2.60;100.00;63191.88;5053349;28;20229;-54
2023/12/08 09:02:24;;;;;;;11.93;6.50;;;;;;;2.44;100.00;63169.53;5051627;28;20220;-56
2023/12/08 09:04:50;;;;;;;13.53;6.80;;;;;;;2.59;100.00;63190.78;5051202;28;20213;-54
2023/12/08 09:07:17;;;;;;;10.53;6.67;;;;;;;2.59;100.00;63188.28;5050984;28;20209;-53
2023/12/08 09:09:43;;;;;;;7.93;5.70;;;;;;;2.62;100.00;63196.53;5050387;28;20206;-53
2023/12/08 09:12:08;;;;;;;12.60;6.87;;;;;;;2.55;100.00;63183.94;5051960;28;20520;-53
2023/12/08 09:14:35;;;;;;;12.30;7.13;;;;;;;2.66;100.00;63198.38;5052778;28;20270;-54
2023/12/08 09:17:05;;;;;;;11.13;6.93;;;;;;;2.63;100.00;63195.13;5016600;28;20220;-54
2023/12/08 09:19:32;;;;;;;8.93;6.43;;;;;;;2.51;100.00;63180.16;5050356;28;20241;-54
2023/12/08 09:21:57;;;;;;;8.93;5.93;;;;;;;2.49;100.00;63178.00;5050571;28;20217;-54
2023/12/08 09:24:25;;;;;;;8.40;5.93;;;;;;;2.41;100.00;63169.31;5050479;28;20289;-53
2023/12/08 09:26:50;;;;;;;10.67;6.00;;;;;;;2.54;100.00;63182.88;5050673;28;20218;-53
2023/12/08 09:29:16;;;;;;;15.57;7.43;;;;;;;2.39;100.00;63169.06;5050494;28;20197;-55
2023/12/08 09:31:41;;;;;;;10.87;6.77;;;;;;;2.41;100.00;63171.25;5050655;28;20200;-55
2023/12/08 09:34:07;;;;;;;17.33;8.87;;;;;;;2.46;100.00;63179.16;5034683;28;20212;-57
2023/12/08 09:36:33;;;;;;;12.63;7.67;;;;;;;2.54;100.00;63183.41;5043337;22;20577;-52
2023/12/08 09:38:59;;;;;;;10.53;6.07;;;;;;;2.55;100.00;63184.50;5071976;28;20286;-53
2023/12/08 09:41:26;;;;;;;9.70;5.97;;;;;;;2.49;100.00;63180.47;5053238;28;20228;-52
2023/12/08 09:44:11;;;;;;;10.87;6.90;;;;;;;2.48;100.00;63179.38;5052437;28;20232;-54
2023/12/08 09:46:39;;;;;;;7.70;5.80;;;;;;;2.70;100.00;63197.75;5052269;28;20233;-53
2023/12/08 09:49:12;;;;;;;9.83;5.70;;;;;;;2.74;100.00;63206.53;5052557;28;20201;-54
2023/12/08 09:51:38;;;;;;;8.47;5.93;;;;;;;2.76;100.00;63209.25;5052456;28;20270;-53
2023/12/08 09:54:04;;;;;;;10.07;6.57;;;;;;;2.92;100.00;63226.06;5052131;28;20239;-52
2023/12/08 09:56:31;;;;;;;8.60;5.97;;;;;;;3.01;100.00;63235.84;5034114;28;20210;-53
2023/12/08 09:58:57;;;;;;;10.93;6.40;;;;;;;2.71;100.00;63203.81;5052069;28;20340;-52
2023/12/08 10:01:23;;;;;;;9.87;6.63;;;;;;;2.50;100.00;63181.03;5052581;28;20285;-59
2023/12/08 10:03:49;;;;;;;10.73;7.30;;;;;;;2.49;100.00;63179.94;5051964;28;20254;-53
2023/12/08 10:06:14;;;;;;;11.33;6.83;;;;;;;2.72;100.00;63206.84;5051664;28;20229;-54
2023/12/08 10:08:41;;;;;;;11.93;6.70;;;;;;;2.77;100.00;63207.84;5051859;28;20238;-54
2023/12/08 10:11:06;;;;;;;11.63;7.40;;;;;;;2.84;100.00;63215.44;5051807;28;20808;-53
2023/12/08 10:13:32;;;;;;;9.77;6.50;;;;;;;2.94;100.00;63228.25;5033221;28;20299;-54
2023/12/08 10:16:00;;;;;;;9.53;6.17;;;;;;;3.00;100.00;63234.75;5051815;28;20205;-54
2023/12/08 10:18:26;;;;;;;13.20;7.53;;;;;;;2.89;100.00;63220.34;5072696;22;20318;-53
2023/12/08 10:21:11;;;;;;;10.40;6.87;;;;;;;2.91;100.00;63225.53;5071754;28;20251;-52
2023/12/08 10:23:37;;;;;;;10.70;6.57;;;;;;;3.12;100.00;63245.28;5052003;28;20235;-56
2023/12/08 10:26:04;;;;;;;11.80;7.23;;;;;;;3.09;100.00;63245.06;5052203;28;20248;-53
2023/12/08 10:28:33;;;;;;;9.33;6.60;;;;;;;3.06;100.00;63244.31;5033605;28;20248;-55
2023/12/08 10:30:59;;;;;;;10.00;6.43;;;;;;;3.03;100.00;63238.03;5050276;28;20664;-54
2023/12/08 10:33:25;;;;;;;14.17;6.30;;;;;;;2.79;100.00;63209.47;5051755;28;20293;-53
2023/12/08 10:35:51;;;;;;;11.07;6.10;;;;;;;2.80;100.00;63213.59;5051499;28;20209;-53
2023/12/08 10:38:18;;;;;;;11.27;7.20;;;;;;;2.91;100.00;63225.53;5051071;28;20210;-53
2023/12/08 10:40:51;;;;;;;13.53;7.10;;;;;;;2.92;100.00;63224.13;5051278;28;20205;-52
2023/12/08 10:43:25;;;;;;;12.67;7.33;;;;;;;2.94;100.00;63228.78;5051028;28;20209;-53
2023/12/08 10:45:55;;;;;;;9.80;6.37;;;;;;;2.97;100.00;63229.53;5051321;28;20296;-54
2023/12/08 10:48:22;;;;;;;10.87;6.20;;;;;;;2.89;100.00;63220.34;5033572;28;20235;-54
2023/12/08 10:50:49;;;;;;;9.50;6.43;;;;;;;2.82;100.00;63212.72;5051180;28;20202;-55
2023/12/08 10:53:20;;;;;;;9.63;6.00;;;;;;;2.67;100.00;63198.94;5051404;28;20220;-53
2023/12/08 10:56:15;;;;;;;10.13;5.97;;;;;;;2.69;100.00;63201.09;5051445;28;20200;-55
2023/12/08 10:58:44;;;;;;;7.67;5.87;;;;;;;2.79;100.00;63211.97;5051529;28;20214;-55
2023/12/08 11:01:14;;;;;;;8.63;6.30;;;;;;;2.86;100.00;63217.63;5050662;28;20216;-56
2023/12/08 11:03:42;;;;;;;9.10;6.47;;;;;;;2.94;100.00;63225.75;5050739;28;20227;-53
2023/12/08 11:06:21;;;;;;;12.20;6.67;;;;;;;2.93;100.00;63222.72;5049791;28;20228;-52
2023/12/08 11:08:48;;;;;;;11.53;6.63;;;;;;;2.89;100.00;63223.34;5031431;28;20206;-54
2023/12/08 11:11:16;;;;;;;14.13;7.70;;;;;;;3.01;100.00;63236.38;5050848;28;20306;-54
2023/12/08 11:13:45;;;;;;;11.70;7.23;;;;;;;2.78;100.00;63208.38;5051471;28;20210;-54
2023/12/08 11:16:39;;;;;;;9.73;6.37;;;;;;;2.61;100.00;63192.44;5051296;28;20631;-54
2023/12/08 11:19:06;;;;;;;12.50;7.50;;;;;;;2.69;100.00;63201.63;5033067;28;20683;-54
2023/12/08 11:21:32;;;;;;;11.13;6.73;;;;;;;2.62;100.00;63191.00;5050691;28;20197;-55
2023/12/08 11:23:59;;;;;;;9.77;6.97;;;;;;;2.74;100.00;63204.03;5051287;28;20258;-54
2023/12/08 11:26:44;;;;;;;12.23;6.83;;;;;;;2.92;100.00;63224.13;5051353;28;20236;-54